Narberth, United Kingdom
Current Conditions -  °F | °C
As of 9:50 PM on Monday 20 Oct 2014 (Local Time) from EGOP Reporting Station
Broken Clouds Broken Clouds  
Wind Chill: 59°   Ceiling: 3900
Heat Index: 59°   Visibility: 6mi
Dew Point: 54°   Wind: 30mph
Humidity: 82%   Direction: 220°SW
Pressure: 29.83"   Gusts: NA
Location:  51.8°N, 4.74°W
Report Text: EGOP 202050Z AUTO 22026KT 9999 // FEW014/// BKN039/// 15/12 Q1010
Loading
Personal Weather Stations






























Interactive Weather Map New forecast layout! Learn more

10-Day Weather Forecast

Advertisements
Track Severe Weather on mobile